Time;durP1;ratioP1;P1;durP2;ratioP2;P2;SDS_P1;SDS_P2;PMS_P1;PMS_P2;Temp;Humidity;BMP_temperature;BMP_pressure;BME280_temperature;BME280_humidity;BME280_pressure;Samples;Min_cycle;Max_cycle;Signal;HPM_P1;HPM_P2
2023/04/06 00:02:00;;;;;;;4.57;3.80;;;4.10;99.90;;;;;;5059407;28;20055;-74
2023/04/06 00:04:28;;;;;;;5.60;3.63;;;4.10;99.90;;;;;;5061435;28;20102;-74
2023/04/06 00:06:56;;;;;;;6.28;4.13;;;4.00;99.90;;;;;;5066739;28;20408;-74
2023/04/06 00:09:23;;;;;;;5.95;4.22;;;4.00;99.90;;;;;;5066576;28;20102;-74
2023/04/06 00:11:51;;;;;;;4.82;3.63;;;4.00;99.90;;;;;;5064332;28;20075;-73
2023/04/06 00:14:18;;;;;;;4.28;3.88;;;4.00;99.90;;;;;;5055404;28;20106;-74
2023/04/06 00:16:47;;;;;;;5.45;3.97;;;4.00;99.90;;;;;;5057939;28;20121;-73
2023/04/06 00:19:15;;;;;;;5.82;4.55;;;4.00;99.90;;;;;;5066822;28;21177;-74
2023/04/06 00:21:42;;;;;;;5.47;3.80;;;4.00;99.90;;;;;;5066941;28;20083;-74
2023/04/06 00:24:10;;;;;;;5.95;4.13;;;4.00;99.90;;;;;;5066387;28;20099;-75
2023/04/06 00:26:37;;;;;;;5.22;4.18;;;4.00;99.90;;;;;;5056727;28;20048;-75
2023/04/06 00:29:06;;;;;;;4.07;3.67;;;4.00;99.90;;;;;;5059331;28;20055;-75
2023/04/06 00:31:33;;;;;;;6.45;4.10;;;4.00;99.90;;;;;;5058026;28;20044;-75
2023/04/06 00:34:02;;;;;;;4.20;3.80;;;4.00;99.90;;;;;;5065887;28;20076;-75
2023/04/06 00:36:30;;;;;;;4.93;4.28;;;4.00;99.90;;;;;;5053745;28;20624;-75
2023/04/06 00:38:58;;;;;;;5.38;3.92;;;4.00;99.90;;;;;;5063332;28;20505;-75
2023/04/06 00:41:26;;;;;;;4.97;4.07;;;3.90;99.90;;;;;;5049381;28;20488;-75
2023/04/06 00:43:54;;;;;;;5.20;4.20;;;3.90;99.90;;;;;;5039485;28;20135;-74
2023/04/06 00:46:22;;;;;;;5.38;4.85;;;3.90;99.90;;;;;;5064098;28;20479;-74
2023/04/06 00:48:50;;;;;;;6.00;4.50;;;3.90;99.90;;;;;;5063403;28;20067;-73
2023/04/06 00:51:19;;;;;;;6.68;4.05;;;3.90;99.90;;;;;;5055175;28;20049;-73
2023/04/06 00:53:46;;;;;;;5.07;4.18;;;3.90;99.90;;;;;;5062621;28;20493;-73
2023/04/06 00:56:14;;;;;;;5.57;4.65;;;3.90;99.90;;;;;;5041610;28;20049;-74
2023/04/06 00:58:50;;;;;;;4.65;4.25;;;3.90;99.90;;;;;;5051492;28;20086;-73
2023/04/06 01:01:18;;;;;;;6.63;4.55;;;3.90;99.90;;;;;;5070581;28;20052;-73
2023/04/06 01:03:49;;;;;;;6.20;4.53;;;3.80;99.90;;;;;;5067956;28;20040;-73
2023/04/06 01:06:19;;;;;;;5.35;4.13;;;3.80;99.90;;;;;;5036771;28;20044;-74
2023/04/06 01:08:56;;;;;;;6.18;3.90;;;3.80;99.90;;;;;;5061739;28;20052;-76
2023/04/06 01:11:26;;;;;;;7.22;4.30;;;3.90;99.90;;;;;;5044554;28;20042;-75
2023/04/06 01:13:54;;;;;;;7.32;4.55;;;3.90;99.90;;;;;;5062887;28;20049;-74
2023/04/06 01:16:30;;;;;;;5.53;4.15;;;3.90;99.90;;;;;;5071979;28;20541;-74
2023/04/06 01:19:30;;;;;;;6.38;4.45;;;3.90;99.90;;;;;;5028752;28;20122;-75
2023/04/06 01:22:00;;;;;;;6.38;4.90;;;3.90;99.90;;;;;;5051120;28;20055;-75
2023/04/06 01:24:32;;;;;;;5.22;4.70;;;3.90;99.90;;;;;;5069629;28;20504;-75
2023/04/06 01:27:13;;;;;;;7.05;4.90;;;3.90;99.90;;;;;;5045010;28;20053;-76
2023/04/06 01:29:59;;;;;;;5.32;4.57;;;3.90;99.90;;;;;;5050628;28;20128;-75
2023/04/06 01:32:42;;;;;;;8.65;4.93;;;3.80;99.90;;;;;;5034148;28;20198;-74
2023/04/06 01:35:13;;;;;;;7.53;4.78;;;3.80;99.90;;;;;;5033207;28;20429;-74
2023/04/06 01:37:48;;;;;;;6.68;4.63;;;3.80;99.90;;;;;;5069468;28;20118;-74
2023/04/06 01:40:25;;;;;;;5.43;4.45;;;3.80;99.90;;;;;;5063858;28;20040;-75
2023/04/06 01:42:53;;;;;;;7.35;4.38;;;3.80;99.90;;;;;;5047375;28;20057;-75
2023/04/06 01:45:30;;;;;;;8.07;5.10;;;3.90;99.90;;;;;;5048154;28;20037;-75
2023/04/06 01:48:03;;;;;;;5.95;4.55;;;3.90;99.90;;;;;;5054492;28;20049;-75
2023/04/06 01:50:31;;;;;;;8.65;4.93;;;3.90;99.90;;;;;;5062007;28;20135;-75
2023/04/06 01:52:58;;;;;;;5.15;4.65;;;3.90;99.90;;;;;;5034615;28;20051;-73
2023/04/06 01:55:30;;;;;;;5.38;4.65;;;3.90;99.90;;;;;;5046253;28;20049;-74
2023/04/06 01:58:23;;;;;;;5.60;4.65;;;3.80;99.90;;;;;;5061888;28;20056;-74
2023/04/06 02:00:51;;;;;;;7.05;4.80;;;3.80;99.90;;;;;;5069263;28;20123;-75
2023/04/06 02:03:19;;;;;;;5.47;4.97;;;3.80;99.90;;;;;;5066832;28;20048;-75
2023/04/06 02:05:48;;;;;;;5.53;4.68;;;3.80;99.90;;;;;;5067584;28;20504;-75
2023/04/06 02:08:22;;;;;;;5.93;4.50;;;3.80;99.90;;;;;;5068257;28;20049;-75
2023/04/06 02:10:51;;;;;;;7.30;4.88;;;3.80;99.90;;;;;;5066036;28;20076;-75
2023/04/06 02:13:30;;;;;;;5.93;4.88;;;3.80;99.90;;;;;;5048068;28;20048;-75
2023/04/06 02:15:59;;;;;;;6.13;5.53;;;3.70;99.90;;;;;;5059742;28;20048;-76
2023/04/06 02:18:29;;;;;;;6.90;4.97;;;3.70;99.90;;;;;;5062543;28;20581;-76
2023/04/06 02:20:57;;;;;;;9.45;4.80;;;3.70;99.90;;;;;;5064707;28;20063;-75
2023/04/06 02:23:25;;;;;;;7.40;5.43;;;3.70;99.90;;;;;;5057762;28;20056;-75
2023/04/06 02:25:54;;;;;;;6.20;4.85;;;3.70;99.90;;;;;;5064065;28;20044;-75
2023/04/06 02:28:22;;;;;;;6.60;5.15;;;3.60;99.90;;;;;;5068580;28;20056;-73
2023/04/06 02:30:49;;;;;;;6.28;5.25;;;3.60;99.90;;;;;;5065610;28;20493;-73
2023/04/06 02:33:18;;;;;;;6.40;4.82;;;3.60;99.90;;;;;;5058255;28;20075;-76
2023/04/06 02:35:48;;;;;;;6.22;4.78;;;3.60;99.90;;;;;;5060050;28;20040;-74
2023/04/06 02:38:15;;;;;;;8.15;4.82;;;3.60;99.90;;;;;;5048178;28;20157;-74
2023/04/06 02:40:42;;;;;;;7.55;4.85;;;3.60;99.90;;;;;;5060677;28;20037;-75
2023/04/06 02:43:22;;;;;;;7.05;5.32;;;3.60;99.90;;;;;;5067272;28;20067;-74
2023/04/06 02:45:55;;;;;;;8.10;5.45;;;3.60;99.90;;;;;;5068856;28;20466;-75
2023/04/06 02:48:25;;;;;;;6.47;5.13;;;3.60;99.90;;;;;;5064994;28;20504;-74
2023/04/06 02:50:54;;;;;;;6.32;4.80;;;3.60;99.90;;;;;;5032160;28;20052;-74
2023/04/06 02:53:21;;;;;;;4.80;4.30;;;3.50;99.90;;;;;;5044742;28;20101;-74
2023/04/06 02:55:49;;;;;;;7.53;5.32;;;3.50;99.90;;;;;;5060097;28;20044;-73
2023/04/06 02:58:17;;;;;;;6.93;5.35;;;3.50;99.90;;;;;;5036592;28;20101;-73
2023/04/06 03:00:50;;;;;;;5.67;4.97;;;3.50;99.90;;;;;;5062607;28;20045;-73
2023/04/06 03:03:18;;;;;;;5.53;4.75;;;3.50;99.90;;;;;;5039177;28;20060;-74
2023/04/06 03:05:47;;;;;;;6.32;5.28;;;3.50;99.90;;;;;;5067106;28;20033;-72
2023/04/06 03:08:16;;;;;;;6.18;5.20;;;3.50;99.90;;;;;;5067336;28;20511;-73
2023/04/06 03:10:46;;;;;;;5.93;5.20;;;3.40;99.90;;;;;;5064304;28;20121;-73
2023/04/06 03:13:14;;;;;;;5.32;4.60;;;3.40;99.90;;;;;;5050213;28;20055;-73
2023/04/06 03:15:50;;;;;;;5.25;4.40;;;3.40;99.90;;;;;;5050653;28;20076;-73
2023/04/06 03:18:23;;;;;;;8.43;5.55;;;3.40;99.90;;;;;;5036268;28;20451;-74
2023/04/06 03:20:55;;;;;;;5.82;5.22;;;3.40;99.90;;;;;;5066380;28;20045;-74
2023/04/06 03:23:27;;;;;;;5.93;5.05;;;3.50;99.90;;;;;;5063415;28;20048;-74
2023/04/06 03:26:02;;;;;;;6.97;4.97;;;3.50;99.90;;;;;;5058069;28;20053;-74
2023/04/06 03:28:30;;;;;;;6.45;5.13;;;3.50;99.90;;;;;;5063261;28;20404;-73
2023/04/06 03:31:05;;;;;;;5.05;4.57;;;3.60;99.90;;;;;;5064373;28;20516;-74
2023/04/06 03:33:56;;;;;;;13.70;8.95;;;3.50;99.90;;;;;;5067368;28;20041;-73
2023/04/06 03:36:28;;;;;;;14.98;9.27;;;3.50;99.90;;;;;;5049284;28;20099;-73
2023/04/06 03:38:58;;;;;;;7.47;5.72;;;3.50;99.90;;;;;;5066481;28;20075;-73
2023/04/06 03:41:26;;;;;;;6.70;5.57;;;3.50;99.90;;;;;;5037018;28;20102;-74
2023/04/06 03:44:20;;;;;;;5.70;4.93;;;3.50;99.90;;;;;;5065495;28;20048;-75
2023/04/06 03:46:49;;;;;;;7.15;5.75;;;3.50;99.90;;;;;;5064975;28;20139;-74
2023/04/06 03:49:17;;;;;;;7.30;5.28;;;3.50;99.90;;;;;;5067966;28;20138;-75
2023/04/06 03:51:48;;;;;;;7.40;4.97;;;3.50;99.90;;;;;;5066968;28;20405;-74
2023/04/06 03:54:16;;;;;;;6.45;5.07;;;3.50;99.90;;;;;;5066978;28;20044;-75
2023/04/06 03:56:45;;;;;;;6.43;5.28;;;3.50;99.90;;;;;;5067403;28;20044;-73
2023/04/06 03:59:13;;;;;;;5.97;5.18;;;3.50;99.90;;;;;;5064446;28;20049;-76
2023/04/06 04:01:40;;;;;;;7.50;5.20;;;3.50;99.90;;;;;;5058540;28;20512;-75
2023/04/06 04:04:09;;;;;;;6.65;4.60;;;3.50;99.90;;;;;;5066372;28;20059;-75
2023/04/06 04:06:37;;;;;;;6.18;4.38;;;3.50;99.90;;;;;;5064217;28;20816;-76
2023/04/06 04:09:04;;;;;;;6.85;5.07;;;3.50;99.90;;;;;;5062848;28;20110;-75
2023/04/06 04:11:32;;;;;;;5.38;4.78;;;3.50;99.90;;;;;;5064585;28;20429;-75
2023/04/06 04:14:06;;;;;;;5.97;4.65;;;3.40;99.90;;;;;;5062298;28;20067;-74
2023/04/06 04:16:34;;;;;;;9.43;4.50;;;3.40;99.90;;;;;;5053358;28;20045;-75
2023/04/06 04:19:02;;;;;;;9.27;5.10;;;3.40;99.90;;;;;;5063108;28;20094;-77
2023/04/06 04:21:51;;;;;;;9.75;5.88;;;3.30;99.90;;;;;;5065272;28;20076;-81
2023/04/06 04:24:28;;;;;;;5.40;4.03;;;3.30;99.90;;;;;;5065573;28;20051;-77
2023/04/06 04:26:56;;;;;;;6.75;5.20;;;3.30;99.90;;;;;;5060372;28;20078;-77
2023/04/06 04:29:25;;;;;;;6.30;4.97;;;3.30;99.90;;;;;;5069396;28;20055;-77
2023/04/06 04:31:54;;;;;;;5.32;4.57;;;3.30;99.90;;;;;;5052510;28;20044;-78
2023/04/06 04:34:24;;;;;;;6.03;4.72;;;3.30;99.90;;;;;;5047600;28;20483;-77
2023/04/06 04:36:54;;;;;;;10.38;5.60;;;3.30;99.90;;;;;;5071115;28;20135;-77
2023/04/06 04:39:35;;;;;;;6.90;5.18;;;3.30;99.90;;;;;;5058083;28;20442;-77
2023/04/06 04:42:09;;;;;;;10.30;5.05;;;3.40;99.90;;;;;;5081830;28;20044;-77
2023/04/06 04:44:42;;;;;;;4.75;4.25;;;3.40;99.90;;;;;;5081747;28;20564;-76
2023/04/06 04:47:46;;;;;;;6.72;5.15;;;3.40;99.90;;;;;;5052752;28;20146;-77
2023/04/06 04:50:46;;;;;;;11.52;6.20;;;3.40;99.90;;;;;;5070862;28;20040;-77
2023/04/06 04:53:17;;;;;;;7.22;5.68;;;3.30;99.90;;;;;;5052930;28;20076;-77
2023/04/06 04:55:49;;;;;;;5.63;5.00;;;3.40;99.90;;;;;;5062467;28;20036;-78
2023/04/06 04:58:19;;;;;;;7.43;5.85;;;3.50;99.90;;;;;;5054802;28;20049;-78
2023/04/06 05:00:55;;;;;;;7.93;6.10;;;3.50;99.90;;;;;;5053941;28;20413;-78
2023/04/06 05:03:26;;;;;;;9.75;6.18;;;3.50;99.90;;;;;;5052742;28;20052;-75
2023/04/06 05:06:06;;;;;;;10.65;6.03;;;3.50;99.90;;;;;;5060860;28;20068;-79
2023/04/06 05:08:39;;;;;;;8.10;5.65;;;3.50;99.90;;;;;;5068775;28;20044;-76
2023/04/06 05:11:07;;;;;;;10.30;6.32;;;3.50;99.90;;;;;;5066540;28;20049;-75
2023/04/06 05:13:39;;;;;;;7.57;5.50;;;3.50;99.90;;;;;;5066703;28;20047;-75
2023/04/06 05:16:15;;;;;;;8.23;5.20;;;3.50;99.90;;;;;;5069001;28;20040;-77
2023/04/06 05:18:43;;;;;;;8.00;5.53;;;3.50;99.90;;;;;;5069046;28;20052;-76
2023/04/06 05:21:12;;;;;;;8.55;5.95;;;3.50;99.90;;;;;;5068285;28;20064;-77
2023/04/06 05:23:55;;;;;;;7.43;4.20;;;3.50;99.90;;;;;;5068013;28;20052;-77
2023/04/06 05:26:23;;;;;;;5.03;4.15;;;3.60;99.90;;;;;;5055119;28;20147;-75
2023/04/06 05:28:54;;;;;;;7.35;4.28;;;3.50;99.90;;;;;;5068023;28;20135;-76
2023/04/06 05:31:23;;;;;;;7.57;4.65;;;3.60;99.90;;;;;;5055661;28;20539;-75
2023/04/06 05:33:52;;;;;;;9.32;4.45;;;3.60;99.90;;;;;;5048325;28;20052;-75
2023/04/06 05:36:31;;;;;;;5.82;4.30;;;3.70;99.90;;;;;;5033453;28;20433;-76
2023/04/06 05:39:07;;;;;;;9.45;4.20;;;3.70;99.90;;;;;;5033434;28;20151;-75
2023/04/06 05:41:40;;;;;;;8.13;4.63;;;3.70;99.90;;;;;;5056596;28;20048;-74
2023/04/06 05:44:10;;;;;;;4.35;3.95;;;3.70;99.90;;;;;;5069503;28;20068;-75
2023/04/06 05:46:40;;;;;;;4.82;4.32;;;3.70;99.90;;;;;;5062222;28;20052;-75
2023/04/06 05:49:12;;;;;;;5.85;4.32;;;3.80;99.90;;;;;;5069942;28;20044;-75
2023/04/06 05:51:40;;;;;;;7.70;4.70;;;3.80;99.90;;;;;;5053447;28;20053;-75
2023/04/06 05:54:13;;;;;;;6.20;4.72;;;3.80;99.90;;;;;;5035222;28;20699;-76
2023/04/06 05:56:41;;;;;;;;;;;3.70;99.90;;;;;;5082095;28;20060;-74
2023/04/06 05:59:11;;;;;;;5.68;4.03;;;3.70;99.90;;;;;;5068067;28;19967;-75
2023/04/06 06:01:40;;;;;;;8.27;4.95;;;3.60;99.90;;;;;;5050848;28;20081;-75
2023/04/06 06:04:12;;;;;;;5.90;4.32;;;3.60;99.90;;;;;;5053065;28;20459;-75
2023/04/06 06:06:41;;;;;;;5.43;3.80;;;3.60;99.90;;;;;;5069292;28;20052;-75
2023/04/06 06:09:16;;;;;;;7.63;4.80;;;3.60;99.90;;;;;;5067925;28;20138;-76
2023/04/06 06:11:53;;;;;;;8.70;4.95;;;3.60;99.90;;;;;;5054682;28;20139;-77
2023/04/06 06:14:25;;;;;;;5.60;4.43;;;3.60;99.90;;;;;;5045283;28;20072;-76
2023/04/06 06:16:52;;;;;;;5.03;4.45;;;3.60;99.90;;;;;;5051741;28;20504;-75
2023/04/06 06:19:20;;;;;;;6.93;4.80;;;3.60;99.90;;;;;;5068591;28;20114;-76
2023/04/06 06:21:49;;;;;;;6.50;5.03;;;3.60;99.90;;;;;;5044551;28;20048;-75
2023/04/06 06:24:18;;;;;;;7.45;4.82;;;3.70;99.90;;;;;;5065157;28;20118;-76
2023/04/06 06:26:48;;;;;;;8.52;5.95;;;3.70;99.90;;;;;;5058622;28;20051;-75
2023/04/06 06:29:29;;;;;;;8.82;6.20;;;3.80;99.90;;;;;;5063507;28;20048;-75
2023/04/06 06:31:57;;;;;;;9.90;6.07;;;3.80;99.90;;;;;;5062940;28;20595;-74
2023/04/06 06:34:26;;;;;;;14.27;7.32;;;3.70;99.90;;;;;;5057222;28;20055;-75
2023/04/06 06:36:55;;;;;;;11.02;7.95;;;3.70;99.90;;;;;;5056757;28;20072;-75
2023/04/06 06:39:25;;;;;;;13.27;8.63;;;3.70;99.90;;;;;;5056554;28;20433;-76
2023/04/06 06:41:54;;;;;;;13.27;8.88;;;3.70;99.90;;;;;;5064981;28;20040;-75
2023/04/06 06:44:25;;;;;;;13.47;8.30;;;3.70;99.90;;;;;;5062295;28;20083;-76
2023/04/06 06:46:52;;;;;;;14.13;9.43;;;3.60;99.90;;;;;;5064180;28;20055;-76
2023/04/06 06:49:20;;;;;;;15.38;9.50;;;3.60;99.90;;;;;;5066713;28;20582;-78
2023/04/06 06:51:48;;;;;;;10.82;7.60;;;3.70;99.90;;;;;;5064734;28;20043;-78
2023/04/06 06:54:15;;;;;;;14.50;9.35;;;3.70;99.90;;;;;;5056504;28;20114;-76
2023/04/06 06:56:44;;;;;;;15.30;9.57;;;3.90;99.90;;;;;;5060518;28;20492;-76
2023/04/06 06:59:12;;;;;;;17.25;9.80;;;3.90;99.90;;;;;;5073829;28;20060;-76
2023/04/06 07:01:40;;;;;;;15.90;10.00;;;4.00;99.90;;;;;;5050149;28;20072;-77
2023/04/06 07:04:08;;;;;;;19.75;12.50;;;4.00;99.90;;;;;;5055131;28;20068;-76
2023/04/06 07:06:39;;;;;;;16.98;10.85;;;4.00;99.90;;;;;;5064631;28;20048;-76
2023/04/06 07:09:07;;;;;;;18.17;11.27;;;4.10;99.90;;;;;;5040744;28;20599;-75
2023/04/06 07:11:35;;;;;;;18.83;12.18;;;4.20;99.90;;;;;;5060813;28;20573;-76
2023/04/06 07:14:04;;;;;;;17.40;11.60;;;4.30;99.90;;;;;;5063138;28;20052;-76
2023/04/06 07:16:32;;;;;;;17.33;10.75;;;4.40;99.90;;;;;;5055367;28;20049;-74
2023/04/06 07:19:00;;;;;;;18.25;11.15;;;4.50;99.90;;;;;;5068477;28;20060;-76
2023/04/06 07:21:28;;;;;;;21.27;14.00;;;4.60;99.90;;;;;;5066128;28;20045;-75
2023/04/06 07:23:56;;;;;;;19.33;11.70;;;4.70;99.90;;;;;;5060944;28;20056;-76
2023/04/06 07:26:25;;;;;;;13.73;10.30;;;4.80;99.90;;;;;;5062345;28;20511;-75
2023/04/06 07:28:53;;;;;;;13.82;10.15;;;4.80;99.90;;;;;;5066704;28;20143;-77
2023/04/06 07:31:23;;;;;;;12.93;9.88;;;4.80;99.90;;;;;;5067757;28;20139;-75
2023/04/06 07:33:51;;;;;;;12.98;9.43;;;4.90;99.90;;;;;;5068072;28;20049;-75
2023/04/06 07:36:19;;;;;;;14.40;9.60;;;5.00;99.90;;;;;;5059195;28;20044;-75
2023/04/06 07:38:47;;;;;;;14.63;9.68;;;5.00;99.90;;;;;;5068825;28;20044;-75
2023/04/06 07:41:18;;;;;;;13.80;10.45;;;5.10;99.90;;;;;;5062217;28;20045;-77
2023/04/06 07:43:47;;;;;;;18.88;9.73;;;4.90;99.90;;;;;;5068203;28;20147;-79
2023/04/06 07:46:15;;;;;;;13.82;9.48;;;4.90;99.90;;;;;;5067364;28;20126;-81
2023/04/06 07:48:44;;;;;;;12.32;9.07;;;4.90;99.90;;;;;;5052650;28;20049;-78
2023/04/06 07:51:14;;;;;;;13.48;9.43;;;4.90;99.90;;;;;;5054293;28;20123;-77
2023/04/06 07:53:42;;;;;;;17.13;10.23;;;4.90;99.90;;;;;;5050553;28;20041;-76
2023/04/06 07:56:10;;;;;;;15.38;9.45;;;5.00;99.90;;;;;;5067854;28;20060;-77
2023/04/06 07:58:38;;;;;;;16.02;10.25;;;5.10;99.90;;;;;;5069303;28;20537;-79
2023/04/06 08:01:05;;;;;;;14.30;10.07;;;5.20;99.90;;;;;;5060985;28;20049;-77
2023/04/06 08:03:35;;;;;;;15.55;10.30;;;5.20;99.90;;;;;;5061226;28;20072;-78
2023/04/06 08:06:05;;;;;;;16.77;11.27;;;5.10;99.90;;;;;;5069683;28;20075;-79
2023/04/06 08:08:33;;;;;;;15.40;11.02;;;5.00;99.90;;;;;;5071381;28;20048;-78
2023/04/06 08:11:02;;;;;;;27.33;10.90;;;5.00;99.90;;;;;;5066299;28;20052;-77
2023/04/06 08:13:30;;;;;;;19.60;11.65;;;5.10;99.90;;;;;;5053901;28;20523;-78
2023/04/06 08:15:58;;;;;;;22.25;12.05;;;5.10;99.90;;;;;;5068392;28;20131;-79
2023/04/06 08:18:25;;;;;;;18.80;12.77;;;5.20;99.90;;;;;;5070732;28;20078;-77
2023/04/06 08:20:53;;;;;;;17.52;11.40;;;5.20;99.90;;;;;;5052129;28;20049;-77
2023/04/06 08:23:22;;;;;;;19.17;11.50;;;5.20;99.90;;;;;;5052032;28;20056;-78
2023/04/06 08:25:49;;;;;;;17.58;11.75;;;5.30;99.90;;;;;;5059121;28;20064;-78
2023/04/06 08:28:17;;;;;;;20.77;11.95;;;5.20;99.90;;;;;;5073096;28;20119;-80
2023/04/06 08:30:45;;;;;;;20.52;12.60;;;5.30;99.90;;;;;;5064808;28;20098;-79
2023/04/06 08:33:12;;;;;;;20.67;12.52;;;5.40;99.90;;;;;;5071022;28;20052;-78
2023/04/06 08:35:42;;;;;;;21.23;13.60;;;5.50;99.90;;;;;;5063884;28;20504;-79
2023/04/06 08:38:11;;;;;;;24.38;14.98;;;5.50;99.90;;;;;;5062129;28;20056;-77
2023/04/06 08:40:40;;;;;;;28.85;15.77;;;5.50;99.90;;;;;;5064688;28;20052;-79
2023/04/06 08:43:15;;;;;;;24.60;15.73;;;5.60;99.90;;;;;;5065390;28;20051;-79
2023/04/06 08:45:44;;;;;;;67.78;23.38;;;5.60;99.90;;;;;;5055193;28;20140;-79
2023/04/06 08:48:13;;;;;;;29.00;15.93;;;5.60;99.90;;;;;;5066600;28;20139;-79
2023/04/06 08:50:41;;;;;;;27.90;16.27;;;5.50;99.90;;;;;;5071858;28;20424;-79
2023/04/06 08:53:09;;;;;;;33.22;18.30;;;5.40;99.90;;;;;;5063646;28;20046;-79
2023/04/06 08:55:39;;;;;;;30.60;17.90;;;5.40;99.90;;;;;;5062875;28;20505;-78
2023/04/06 08:58:09;;;;;;;32.28;17.38;;;5.40;99.90;;;;;;5062756;28;20080;-78
2023/04/06 09:00:39;;;;;;;27.20;16.73;;;5.50;99.90;;;;;;5066852;28;20037;-78
2023/04/06 09:03:09;;;;;;;27.40;16.48;;;5.60;99.90;;;;;;5069456;28;20558;-79
2023/04/06 09:05:37;;;;;;;33.33;17.05;;;5.60;99.90;;;;;;5063322;28;20094;-78
2023/04/06 09:08:05;;;;;;;27.08;15.77;;;5.60;99.90;;;;;;5064336;28;20129;-76
2023/04/06 09:10:34;;;;;;;29.50;16.75;;;5.60;99.90;;;;;;5062898;28;20041;-76
2023/04/06 09:13:07;;;;;;;30.05;17.42;;;5.60;99.90;;;;;;5070265;28;20461;-75
2023/04/06 09:15:35;;;;;;;29.95;17.88;;;5.60;99.90;;;;;;5067993;28;20336;-74
2023/04/06 09:18:05;;;;;;;27.08;16.70;;;5.60;99.90;;;;;;5065529;28;20136;-74
2023/04/06 09:20:33;;;;;;;29.92;17.17;;;5.70;99.90;;;;;;5070416;28;20131;-74
2023/04/06 09:23:00;;;;;;;26.48;16.73;;;5.80;99.90;;;;;;5061850;28;20424;-74
2023/04/06 09:25:29;;;;;;;30.00;17.35;;;5.90;99.90;;;;;;5049588;28;20047;-77
2023/04/06 09:28:03;;;;;;;25.60;16.30;;;6.00;99.90;;;;;;5052841;28;20048;-78
2023/04/06 09:30:34;;;;;;;28.58;17.13;;;6.00;99.90;;;;;;5071314;28;20063;-79
2023/04/06 09:33:04;;;;;;;31.33;17.90;;;6.00;99.90;;;;;;5066578;28;20044;-78
2023/04/06 09:35:32;;;;;;;31.08;17.27;;;6.00;99.90;;;;;;5066444;28;20091;-78
2023/04/06 09:38:00;;;;;;;29.92;17.45;;;6.20;99.90;;;;;;5061363;28;20059;-78
2023/04/06 09:40:28;;;;;;;29.05;18.33;;;6.30;99.90;;;;;;5052720;28;20043;-78
2023/04/06 09:42:59;;;;;;;29.88;18.00;;;6.40;99.90;;;;;;5065833;28;20052;-78
2023/04/06 09:45:28;;;;;;;28.55;17.13;;;6.50;99.90;;;;;;5051766;28;20540;-78
2023/04/06 09:47:58;;;;;;;25.58;17.25;;;6.60;99.90;;;;;;5064318;28;20041;-77
2023/04/06 09:50:28;;;;;;;26.88;15.70;;;6.60;99.90;;;;;;5054665;28;20053;-79
2023/04/06 09:52:59;;;;;;;27.80;14.60;;;6.60;99.90;;;;;;5056958;28;20410;-78
2023/04/06 09:55:34;;;;;;;19.15;14.15;;;6.60;99.90;;;;;;5058290;28;20075;-77
2023/04/06 09:58:06;;;;;;;18.30;12.77;;;6.70;99.90;;;;;;5064001;28;20053;-78
2023/04/06 10:00:44;;;;;;;18.75;11.80;;;6.70;99.90;;;;;;5059015;28;20079;-78
2023/04/06 10:03:30;;;;;;;17.23;11.93;;;6.90;99.90;;;;;;5065190;28;20040;-78
2023/04/06 10:06:03;;;;;;;18.33;11.32;;;7.00;99.90;;;;;;5061618;28;20084;-78
2023/04/06 10:08:33;;;;;;;18.85;12.43;;;7.60;99.90;;;;;;5061412;28;20048;-75
2023/04/06 10:11:01;;;;;;;23.13;13.57;;;8.30;99.90;;;;;;5061207;28;20075;-75
2023/04/06 10:13:29;;;;;;;25.77;14.93;;;9.00;99.90;;;;;;5065083;28;20048;-75
2023/04/06 10:15:57;;;;;;;20.67;12.75;;;10.00;99.90;;;;;;5061901;28;20075;-75
2023/04/06 10:18:26;;;;;;;17.95;11.77;;;11.10;99.90;;;;;;5062932;28;20496;-77
2023/04/06 10:21:01;;;;;;;16.23;11.27;;;11.40;99.90;;;;;;5042743;28;20044;-77
2023/04/06 10:23:36;;;;;;;19.45;11.48;;;11.50;99.90;;;;;;5066286;28;20049;-81
2023/04/06 10:26:13;;;;;;;14.82;11.50;;;12.00;99.90;;;;;;5066885;28;20057;-77
2023/04/06 10:28:43;;;;;;;13.43;10.30;;;13.50;99.90;;;;;;5063862;28;20048;-76
2023/04/06 10:31:12;;;;;;;11.55;9.32;;;14.70;99.90;;;;;;5061974;28;20044;-75
2023/04/06 10:33:41;;;;;;;13.40;10.30;;;15.60;97.10;;;;;;5061556;28;20048;-78
2023/04/06 10:36:13;;;;;;;11.00;9.20;;;16.20;95.00;;;;;;5068103;28;20045;-77
2023/04/06 10:38:42;;;;;;;11.45;9.25;;;17.00;91.50;;;;;;5063427;28;20053;-78
2023/04/06 10:41:11;;;;;;;9.38;8.27;;;17.70;89.60;;;;;;5063546;28;20059;-78
2023/04/06 10:43:41;;;;;;;9.52;8.52;;;18.40;83.40;;;;;;5064939;28;20045;-78
2023/04/06 10:46:10;;;;;;;11.20;7.80;;;18.90;78.20;;;;;;5057082;28;20475;-76
2023/04/06 10:48:41;;;;;;;11.68;7.50;;;19.50;75.10;;;;;;5056188;28;20136;-76
2023/04/06 10:51:11;;;;;;;9.68;7.10;;;20.00;71.30;;;;;;5070312;28;20135;-77
2023/04/06 10:53:40;;;;;;;9.43;6.75;;;20.00;70.80;;;;;;5063030;28;20460;-77
2023/04/06 10:56:13;;;;;;;9.90;7.68;;;20.00;69.30;;;;;;5052046;28;20287;-77
2023/04/06 10:58:47;;;;;;;8.50;5.85;;;19.80;67.30;;;;;;5061609;28;20052;-78
2023/04/06 11:01:16;;;;;;;7.47;6.70;;;19.50;68.20;;;;;;5053891;28;20451;-79
2023/04/06 11:03:46;;;;;;;7.78;5.80;;;18.60;68.50;;;;;;5057012;28;20041;-78
2023/04/06 11:06:20;;;;;;;8.35;5.80;;;17.80;70.80;;;;;;5067308;28;20044;-77
2023/04/06 11:08:48;;;;;;;9.07;6.00;;;17.20;73.50;;;;;;5060887;28;20481;-78
2023/04/06 11:11:18;;;;;;;9.90;6.18;;;17.10;75.00;;;;;;5064923;28;20508;-77
2023/04/06 11:13:47;;;;;;;6.30;4.93;;;17.30;74.90;;;;;;5068415;28;20052;-76
2023/04/06 11:16:19;;;;;;;9.52;5.05;;;17.90;75.90;;;;;;5068383;28;20053;-79
2023/04/06 11:18:54;;;;;;;8.23;5.13;;;18.70;72.60;;;;;;5070215;28;20045;-79
2023/04/06 11:21:35;;;;;;;9.98;5.47;;;19.40;69.50;;;;;;5058196;28;20060;-79
2023/04/06 11:24:10;;;;;;;6.90;5.78;;;19.60;67.20;;;;;;5062904;28;20057;-78
2023/04/06 11:26:40;;;;;;;9.55;5.90;;;20.10;68.70;;;;;;5068080;28;20101;-78
2023/04/06 11:29:08;;;;;;;9.60;5.38;;;21.00;65.40;;;;;;5065154;28;20048;-79
2023/04/06 11:31:41;;;;;;;8.43;5.50;;;21.90;62.20;;;;;;5067583;28;20051;-76
2023/04/06 11:34:16;;;;;;;10.18;5.13;;;22.40;60.60;;;;;;5062856;28;20149;-79
2023/04/06 11:36:46;;;;;;;7.85;5.07;;;22.80;57.90;;;;;;5067609;28;20121;-78
2023/04/06 11:39:15;;;;;;;4.70;4.30;;;23.10;57.90;;;;;;5055570;28;20509;-79
2023/04/06 11:41:43;;;;;;;7.88;4.97;;;23.40;56.90;;;;;;5063199;28;20402;-79
2023/04/06 11:44:13;;;;;;;7.00;4.72;;;23.60;55.60;;;;;;5061515;28;20090;-79
2023/04/06 11:46:41;;;;;;;7.82;4.80;;;23.70;55.90;;;;;;5058016;28;20048;-79
2023/04/06 11:49:11;;;;;;;9.77;7.20;;;24.10;55.30;;;;;;5063930;28;20065;-78
2023/04/06 11:51:41;;;;;;;12.88;6.80;;;24.50;54.20;;;;;;5060421;28;20044;-80
2023/04/06 11:54:08;;;;;;;15.40;7.70;;;24.70;53.60;;;;;;5058884;28;20104;-78
2023/04/06 11:56:36;;;;;;;25.45;7.75;;;24.80;53.00;;;;;;5049569;28;20147;-78
2023/04/06 11:59:04;;;;;;;11.95;6.07;;;25.00;52.40;;;;;;5065738;28;20136;-75
2023/04/06 12:01:32;;;;;;;9.90;6.22;;;25.10;51.10;;;;;;5055404;28;20047;-78
2023/04/06 12:03:59;;;;;;;10.60;5.65;;;24.90;51.30;;;;;;5062342;28;20049;-79
2023/04/06 12:06:27;;;;;;;10.90;5.35;;;25.00;51.00;;;;;;5061569;28;20436;-78
2023/04/06 12:08:56;;;;;;;10.13;4.85;;;25.30;50.60;;;;;;5040620;28;20141;-78
2023/04/06 12:11:24;;;;;;;13.75;4.35;;;25.30;50.50;;;;;;5064744;28;20505;-79
2023/04/06 12:13:51;;;;;;;9.23;4.00;;;25.10;49.60;;;;;;5064833;28;20102;-78
2023/04/06 12:16:20;;;;;;;7.30;4.13;;;24.40;50.20;;;;;;5063769;28;20052;-75
2023/04/06 12:18:48;;;;;;;7.28;3.45;;;23.80;51.80;;;;;;5060598;28;20068;-77
2023/04/06 12:21:15;;;;;;;7.50;3.35;;;23.50;52.30;;;;;;5062644;28;20103;-78
2023/04/06 12:23:43;;;;;;;6.75;3.25;;;23.50;51.40;;;;;;5061189;28;20072;-76
2023/04/06 12:26:12;;;;;;;8.23;3.58;;;23.30;51.20;;;;;;5067968;28;20060;-75
2023/04/06 12:28:39;;;;;;;10.57;3.72;;;23.40;51.40;;;;;;5060173;28;20061;-77
2023/04/06 12:31:07;;;;;;;7.78;3.08;;;23.50;51.60;;;;;;5066017;28;20053;-77
2023/04/06 12:33:35;;;;;;;4.75;2.60;;;23.60;50.60;;;;;;5061330;28;20044;-78
2023/04/06 12:36:03;;;;;;;7.05;2.95;;;24.00;50.30;;;;;;5054731;28;20049;-78
2023/04/06 12:38:30;;;;;;;5.80;2.58;;;24.20;49.80;;;;;;5068384;28;20090;-78
2023/04/06 12:40:57;;;;;;;11.02;2.80;;;24.50;49.80;;;;;;5068014;28;20052;-78
2023/04/06 12:43:26;;;;;;;14.63;2.80;;;24.10;48.90;;;;;;5064094;28;20052;-78
2023/04/06 12:45:54;;;;;;;3.88;2.20;;;23.60;49.30;;;;;;5049521;28;20053;-78
2023/04/06 12:48:22;;;;;;;3.72;2.20;;;23.40;49.60;;;;;;5063534;28;20098;-78
2023/04/06 12:50:56;;;;;;;7.10;2.17;;;23.70;49.60;;;;;;5057963;28;20102;-78
2023/04/06 12:53:24;;;;;;;3.58;2.38;;;24.40;49.60;;;;;;5073134;28;20451;-78
2023/04/06 12:55:51;;;;;;;2.60;1.85;;;25.20;48.20;;;;;;5056653;28;20094;-77
2023/04/06 12:58:19;;;;;;;3.40;2.38;;;25.70;46.50;;;;;;5059246;28;20048;-79
2023/04/06 13:00:49;;;;;;;1.63;1.42;;;25.90;45.90;;;;;;5066892;28;20581;-78
2023/04/06 13:03:19;;;;;;;2.97;2.13;;;26.00;46.30;;;;;;5049621;28;20084;-77
2023/04/06 13:05:47;;;;;;;5.78;2.28;;;26.20;45.50;;;;;;5059363;28;20197;-77